Happy Hauler — WDJ5131 — position and weather

sailwx.info

Track history (hours):
 
Tides and Currents Weather Stations Pressure Air Temp Water Temp Dewpoint Dewpoint Depression Visibility Wind Speed Wind Dir Waves Ship Positions

Happy Hauler

Owner: HNY Ferry Fleet LLC, New York, NY. More information available from US FCC via Universal Licensing System and Coast Guard Vessel Documentation Center.

Last reported at 2018-Jun-21 23:49 UTC. Time now 2018-Jun-22 09:02 UTC.
Position N 40°42' W 073°58'.

Length 26 m; draft 2 m.

Type: Passenger vessel. MMSI: 367784630.

Date/timePositionNaut miles runAvg speedWind from/ knotsBaromVisibWave heightAir tempDewpointWater temp
2018-Jun-21 23:49N 40°42' W 073°58'1 3.6
2018-Jun-21 23:31N 40°42' W 073°60'1 1.1
2018-Jun-21 23:01N 40°42' W 073°59'2 3.5
2018-Jun-21 22:30N 40°44' W 073°58'1 1.3
2018-Jun-21 22:00N 40°43' W 073°58'2 4.3
2018-Jun-21 21:30N 40°42' W 074°00'2 4.3
2018-Jun-21 21:00N 40°43' W 073°58'1 1.4
2018-Jun-21 20:08N 40°42' W 073°58'0 3.5
2018-Jun-21 20:00N 40°43' W 073°58'2 4.0
2018-Jun-21 19:30N 40°45' W 073°58'1 2.2
2018-Jun-21 18:49N 40°46' W 073°57'412.2
2018-Jun-21 18:30N 40°42' W 073°58'0 0.0
2018-Jun-21 17:14N 40°42' W 073°58'1 5.4
2018-Jun-21 17:01N 40°42' W 073°60'4 7.4
2018-Jun-21 16:31N 40°39' W 074°02'8 7.6
2018-Jun-21 15:25N 40°34' W 073°53'819.7
2018-Jun-21 15:00N 40°37' W 074°03'4 7.6
2018-Jun-21 14:30N 40°41' W 074°02'9 7.9
2018-Jun-21 13:22N 40°34' W 073°54'720.1
2018-Jun-21 13:00N 40°37' W 074°03'4 8.0
2018-Jun-21 12:31N 40°41' W 074°01'816.1
2018-Jun-21 12:00N 40°34' W 073°56'2 2.6
2018-Jun-21 11:22N 40°34' W 073°54'719.7
2018-Jun-21 11:01N 40°37' W 074°03'612.3
2018-Jun-21 10:31N 40°42' W 073°58'0 0.0
2018-Jun-21 02:54N 40°42' W 073°58'512.1
2018-Jun-21 02:30N 40°38' W 074°02'3 6.0
2018-Jun-21 02:01N 40°41' W 074°01'1 1.6
2018-Jun-21 01:31N 40°42' W 074°00'4 7.4
2018-Jun-21 01:00N 40°38' W 074°02'3 7.0
2018-Jun-21 00:30N 40°42' W 074°00'1 1.1
2018-Jun-21 00:01N 40°42' W 073°60'4 7.3
2018-Jun-20 23:30N 40°39' W 074°02'2 4.9
2018-Jun-20 23:00N 40°41' W 074°01'1 2.8
2018-Jun-20 22:31N 40°42' W 073°60'4 7.4
2018-Jun-20 22:01N 40°39' W 074°02'3 5.9
2018-Jun-20 21:30N 40°42' W 074°00'0 0.0
2018-Jun-20 21:00N 40°42' W 074°00'3 7.0
2018-Jun-20 20:30N 40°38' W 074°02'3 6.9
2018-Jun-20 20:00N 40°42' W 074°00'1 1.4
2018-Jun-20 19:31N 40°42' W 073°60'4 7.5
2018-Jun-20 19:01N 40°39' W 074°02'3 6.3
2018-Jun-20 18:31N 40°42' W 074°00'0 0.0
2018-Jun-20 18:00N 40°42' W 074°00'4 7.0
2018-Jun-20 17:30N 40°38' W 074°02'4 7.2
2018-Jun-20 17:01N 40°42' W 074°00'0 0.0
2018-Jun-20 16:31N 40°42' W 074°00'4 7.1
2018-Jun-20 16:00N 40°38' W 074°02'4 7.1
2018-Jun-20 15:30N 40°42' W 074°00'1 1.3
2018-Jun-20 15:01N 40°42' W 074°00'1 1.3
2018-Jun-20 14:30N 40°42' W 074°00'3 6.6
2018-Jun-20 13:59N 40°39' W 074°02'3 6.5
2018-Jun-20 13:31N 40°41' W 074°00'0 0.6
2018-Jun-20 13:00N 40°42' W 074°00'3 6.7
2018-Jun-20 12:30N 40°39' W 074°02'3 5.7
2018-Jun-20 12:01N 40°41' W 074°01'1 1.0
2018-Jun-20 11:30N 40°42' W 074°00'3 6.9
2018-Jun-20 11:00N 40°38' W 074°02'5 9.5
2018-Jun-20 10:30N 40°42' W 073°58'0 0.1
2018-Jun-20 05:54N 40°42' W 073°59'3 7.3
2018-Jun-20 05:30N 40°43' W 074°02'0 0.0
2018-Jun-20 05:00N 40°43' W 074°02'0 0.0
2018-Jun-20 04:30N 40°43' W 074°02'0 0.9
2018-Jun-20 04:00N 40°43' W 074°02'0 0.2
2018-Jun-20 03:30N 40°43' W 074°02'2 4.7
2018-Jun-20 03:00N 40°42' W 073°59'1 2.0
2018-Jun-20 02:31N 40°42' W 074°00'4 7.2
2018-Jun-20 01:58N 40°45' W 073°57'0 0.2
2018-Jun-20 01:29N 40°45' W 073°57'4 8.1
2018-Jun-20 01:00N 40°42' W 074°00'4 7.5
2018-Jun-20 00:30N 40°45' W 073°57'0 0.1
2018-Jun-20 00:00N 40°45' W 073°57'4 7.6
2018-Jun-19 23:30N 40°42' W 074°00'3 5.6
2018-Jun-19 23:00N 40°45' W 073°58'1 2.1
2018-Jun-19 22:22N 40°46' W 073°57'2 6.1
2018-Jun-19 22:00N 40°44' W 073°58'1 2.1
2018-Jun-19 21:30N 40°45' W 073°58'2 4.5
2018-Jun-19 21:00N 40°46' W 073°56'3 6.4
2018-Jun-19 20:30N 40°43' W 073°58'1 2.4
2018-Jun-19 20:00N 40°45' W 073°58'2 4.5
2018-Jun-19 19:30N 40°46' W 073°56'3 6.0
2018-Jun-19 19:01N 40°44' W 073°58'1 1.7
2018-Jun-19 18:28N 40°45' W 073°58'1 1.9
2018-Jun-19 17:53N 40°45' W 073°57'3 7.8
2018-Jun-19 17:30N 40°43' W 073°58'2 3.9
2018-Jun-19 17:00N 40°45' W 073°58'1 2.3
2018-Jun-19 16:25N 40°46' W 073°57'2 6.0
2018-Jun-19 16:01N 40°43' W 073°58'1 2.6
2018-Jun-19 15:28N 40°45' W 073°58'1 1.9
2018-Jun-19 14:53N 40°45' W 073°57'3 7.2
2018-Jun-19 14:30N 40°43' W 073°58'2 3.4
2018-Jun-19 14:00N 40°45' W 073°58'2 4.3
2018-Jun-19 13:28N 40°46' W 073°56'2 5.2
2018-Jun-19 13:00N 40°45' W 073°58'0 0.3
2018-Jun-19 12:30N 40°45' W 073°58'1 2.2
2018-Jun-19 11:52N 40°46' W 073°57'2 5.4
2018-Jun-19 11:30N 40°44' W 073°58'0 0.9
2018-Jun-19 11:00N 40°43' W 073°58'3 5.9
2018-Jun-19 10:29N 40°46' W 073°56'4 8.2
2018-Jun-19 10:00N 40°43' W 073°58'1 0.1
2018-Jun-19 02:40N 40°42' W 073°58'1 3.7
2018-Jun-19 02:30N 40°43' W 073°59'3 5.5
2018-Jun-19 02:00N 40°45' W 073°57'4 7.6
2018-Jun-19 01:30N 40°42' W 074°00'4 6.9
2018-Jun-19 00:54N 40°46' W 073°57'0 1.2
2018-Jun-19 00:30N 40°45' W 073°57'4 7.6
2018-Jun-19 00:00N 40°42' W 074°00'4 7.2
2018-Jun-18 23:27N 40°45' W 073°57'1 1.3
2018-Jun-18 23:00N 40°45' W 073°57'3 7.0
2018-Jun-18 22:31N 40°42' W 074°00'4 7.7
2018-Jun-18 21:59N 40°45' W 073°57'1 1.2
2018-Jun-18 21:30N 40°45' W 073°57'3 6.9
2018-Jun-18 21:00N 40°42' W 074°00'3 5.7
2018-Jun-18 20:30N 40°45' W 073°58'1 1.8
2018-Jun-18 19:52N 40°45' W 073°57'2 6.3
2018-Jun-18 19:31N 40°43' W 073°58'1 2.7
2018-Jun-18 19:00N 40°45' W 073°58'1 2.0
2018-Jun-18 18:24N 40°45' W 073°57'2 6.1
2018-Jun-18 18:00N 40°43' W 073°58'1 3.0
2018-Jun-18 17:31N 40°45' W 073°58'1 1.8
2018-Jun-18 16:54N 40°45' W 073°57'3 7.7
2018-Jun-18 16:31N 40°43' W 073°58'2 3.8
2018-Jun-18 15:58N 40°45' W 073°58'1 1.6
2018-Jun-18 15:19N 40°45' W 073°57'2 7.9
2018-Jun-18 15:01N 40°43' W 073°58'1 2.8
2018-Jun-18 14:31N 40°42' W 073°60'4 8.2
2018-Jun-18 14:00N 40°46' W 073°57'0 0.6
2018-Jun-18 13:30N 40°46' W 073°57'4 7.9
2018-Jun-18 13:00N 40°42' W 073°58'0 0.0
2018-Jun-18 00:00N 40°42' W 073°58'1 1.0
2018-Jun-17 23:30N 40°43' W 073°58'2 4.2
2018-Jun-17 22:59N 40°45' W 073°58'2 4.6
2018-Jun-17 22:30N 40°43' W 073°58'2 4.3
2018-Jun-17 22:00N 40°41' W 074°01'2 4.3
2018-Jun-17 21:31N 40°43' W 073°58'2 4.3
2018-Jun-17 21:00N 40°45' W 073°58'3 4.7
2018-Jun-17 20:25N 40°42' W 073°60'1 2.6
2018-Jun-17 20:01N 40°41' W 074°01'3 4.3
2018-Jun-17 19:22N 40°43' W 073°58'1 2.8
2018-Jun-17 18:55N 40°45' W 073°58'3 4.7
2018-Jun-17 18:19N 40°42' W 073°60'1 3.3
2018-Jun-17 18:01N 40°41' W 074°01'3 4.4
2018-Jun-17 17:16N 40°44' W 073°58'1 3.1
2018-Jun-17 17:00N 40°45' W 073°58'3 4.0
2018-Jun-17 16:20N 40°42' W 073°60'1 2.3
2018-Jun-17 16:01N 40°42' W 074°00'3 3.8
2018-Jun-17 15:07N 40°45' W 073°58'0 0.0
2018-Jun-17 14:51N 40°45' W 073°58'3 4.7
2018-Jun-17 14:19N 40°42' W 073°59'1 1.7
2018-Jun-17 13:54N 40°42' W 074°00'0 0.4
2018-Jun-17 13:30N 40°42' W 074°00'2 4.5
2018-Jun-17 12:58N 40°44' W 073°58'1 1.4
2018-Jun-17 12:16N 40°43' W 073°58'1 5.6
2018-Jun-17 12:01N 40°42' W 073°60'0 0.9
2018-Jun-17 11:30N 40°42' W 074°00'1 3.0
2018-Jun-17 11:00N 40°43' W 073°58'2 4.1
2018-Jun-17 10:30N 40°45' W 073°58'3 5.1
2018-Jun-17 10:00N 40°42' W 073°58'0 0.0
2018-Jun-17 02:20N 40°42' W 073°58'3 8.0
2018-Jun-17 02:00N 40°45' W 073°58'2 4.3
2018-Jun-17 01:31N 40°43' W 073°58'1 2.6
2018-Jun-17 01:00N 40°42' W 073°60'0 0.4
2018-Jun-17 00:30N 40°42' W 073°60'2 4.5
2018-Jun-17 00:01N 40°44' W 073°58'1 1.3
2018-Jun-16 23:30N 40°43' W 073°58'3 5.6
2018-Jun-16 23:00N 40°41' W 074°01'3 5.6
2018-Jun-16 22:30N 40°43' W 073°58'1 2.4
2018-Jun-16 22:01N 40°44' W 073°58'2 4.1
2018-Jun-16 21:30N 40°43' W 073°59'2 3.7
2018-Jun-16 21:00N 40°42' W 074°01'3 4.8
2018-Jun-16 20:29N 40°43' W 073°58'1 2.9
2018-Jun-16 20:00N 40°45' W 073°58'2 4.1
2018-Jun-16 19:30N 40°43' W 073°58'2 3.3
2018-Jun-16 19:00N 40°42' W 074°00'2 3.2
2018-Jun-16 18:30N 40°43' W 073°58'2 4.0
2018-Jun-16 18:00N 40°45' W 073°58'1 2.5
2018-Jun-16 17:30N 40°43' W 073°58'2 4.3
2018-Jun-16 17:01N 40°42' W 074°00'1 1.6
2018-Jun-16 16:31N 40°42' W 073°59'2 4.9
2018-Jun-16 16:01N 40°45' W 073°58'1 2.0
2018-Jun-16 15:31N 40°44' W 073°58'2 4.6
2018-Jun-16 15:00N 40°42' W 074°00'1 1.6
2018-Jun-16 14:31N 40°41' W 074°01'2 4.3
2018-Jun-16 14:00N 40°43' W 073°58'2 4.3
2018-Jun-16 13:30N 40°45' W 073°58'2 3.6
2018-Jun-16 13:01N 40°43' W 073°58'2 3.5
2018-Jun-16 12:30N 40°42' W 074°00'0 0.0
2018-Jun-16 12:00N 40°42' W 074°00'2 4.6
2018-Jun-16 11:30N 40°44' W 073°58'1 2.4
2018-Jun-16 11:00N 40°42' W 073°59'0 0.8
2018-Jun-16 10:30N 40°42' W 073°58'0 0.0
2018-Jun-16 03:04N 40°42' W 073°58'0 0.5
2018-Jun-16 03:00N 40°42' W 073°58'1 1.2
2018-Jun-16 02:30N 40°43' W 073°58'1 1.5
2018-Jun-16 02:00N 40°43' W 073°58'2 4.3
2018-Jun-16 01:30N 40°42' W 074°00'0 0.4
2018-Jun-16 01:01N 40°42' W 074°00'2 4.8
2018-Jun-16 00:31N 40°44' W 073°58'1 1.3
2018-Jun-16 00:00N 40°43' W 073°58'2 4.3
2018-Jun-15 23:30N 40°42' W 074°00'2 4.3
2018-Jun-15 23:01N 40°43' W 073°58'1 2.5
2018-Jun-15 22:31N 40°45' W 073°58'3 5.6
2018-Jun-15 22:00N 40°42' W 073°60'0 0.3
2018-Jun-15 21:30N 40°42' W 073°60'3 5.0
2018-Jun-15 21:00N 40°45' W 073°58'2 3.9
2018-Jun-15 20:30N 40°43' W 073°58'2 3.4
2018-Jun-15 20:00N 40°42' W 074°00'2 4.3
2018-Jun-15 19:30N 40°43' W 073°58'1 2.5
2018-Jun-15 19:00N 40°45' W 073°58'3 5.6
2018-Jun-15 18:30N 40°42' W 073°60'0 0.9
2018-Jun-15 18:00N 40°42' W 074°00'2 4.9
2018-Jun-15 17:30N 40°44' W 073°58'0 0.7
2018-Jun-15 17:00N 40°44' W 073°58'2 3.9
2018-Jun-15 16:31N 40°42' W 073°59'1 1.3
2018-Jun-15 16:01N 40°42' W 073°58'0 0.0
2018-Jun-15 15:30N 40°42' W 073°58'0 0.0
2018-Jun-15 15:01N 40°42' W 073°58'0 0.0
2018-Jun-15 14:30N 40°42' W 073°58'2 4.6
2018-Jun-15 14:00N 40°44' W 073°58'1 1.3
2018-Jun-15 13:30N 40°45' W 073°57'3 5.7
2018-Jun-15 13:00N 40°42' W 073°59'5 7.4
2018-Jun-15 12:23N 40°46' W 073°56'2 4.5
2018-Jun-15 12:00N 40°45' W 073°57'2 3.8
2018-Jun-15 11:30N 40°43' W 073°58'4 6.6
2018-Jun-15 10:58N 40°46' W 073°56'5 9.9
2018-Jun-15 10:30N 40°42' W 073°58'0 0.0
2018-Jun-15 10:00N 40°42' W 073°58'0 0.0
2018-Jun-15 01:51N 40°42' W 073°58'1 3.3
2018-Jun-15 01:30N 40°42' W 073°60'2 4.4
2018-Jun-15 01:00N 40°44' W 073°58'0 0.5
2018-Jun-15 00:30N 40°44' W 073°58'2 4.8
2018-Jun-15 00:00N 40°42' W 074°00'2 3.1
2018-Jun-14 23:30N 40°43' W 073°58'2 4.0
2018-Jun-14 23:00N 40°45' W 073°58'2 3.5
2018-Jun-14 22:30N 40°43' W 073°58'1 3.0
2018-Jun-14 22:00N 40°42' W 073°60'2 4.6
2018-Jun-14 21:30N 40°44' W 073°58'1 1.3
2018-Jun-14 21:00N 40°43' W 073°58'2 4.3
2018-Jun-14 20:30N 40°42' W 074°00'2 4.3
2018-Jun-14 20:00N 40°43' W 073°58'1 2.5
2018-Jun-14 19:30N 40°45' W 073°58'3 5.6
2018-Jun-14 19:01N 40°42' W 073°60'0 0.9
2018-Jun-14 18:31N 40°42' W 074°00'2 4.2
2018-Jun-14 18:00N 40°43' W 073°58'1 2.6
2018-Jun-14 17:30N 40°45' W 073°58'3 5.5
2018-Jun-14 17:00N 40°42' W 073°60'0 0.3
2018-Jun-14 16:31N 40°42' W 073°60'2 3.4
2018-Jun-14 16:00N 40°43' W 073°58'1 2.5
2018-Jun-14 15:30N 40°45' W 073°58'3 5.1
2018-Jun-14 15:00N 40°42' W 073°60'4 8.3
2018-Jun-14 14:30N 40°39' W 074°02'4 8.7
2018-Jun-14 14:00N 40°42' W 073°59'0 1.0
2018-Jun-14 13:30N 40°43' W 073°59'1 1.0
2018-Jun-14 13:00N 40°42' W 073°58'1 1.3
2018-Jun-14 12:30N 40°43' W 073°59'2 4.3
2018-Jun-14 12:00N 40°45' W 073°58'1 2.8
2018-Jun-14 11:30N 40°43' W 073°58'1 2.6
2018-Jun-14 11:01N 40°42' W 073°58'0 0.0
2018-Jun-14 10:30N 40°42' W 073°58'0 0.0
2018-Jun-14 01:48N 40°42' W 073°58'0 0.0
2018-Jun-14 01:30N 40°42' W 073°58'2 4.5
2018-Jun-14 01:00N 40°41' W 074°01'2 4.3
2018-Jun-14 00:30N 40°42' W 073°58'1 2.4
2018-Jun-14 00:01N 40°43' W 073°58'1 2.5
2018-Jun-13 23:30N 40°42' W 073°58'1 2.2
2018-Jun-13 23:00N 40°42' W 073°60'4 7.9
2018-Jun-13 22:30N 40°39' W 074°02'3 5.6
2018-Jun-13 22:00N 40°41' W 074°01'1 2.3
2018-Jun-13 21:31N 40°42' W 073°60'4 7.4
2018-Jun-13 21:01N 40°39' W 074°02'3 6.0
2018-Jun-13 20:31N 40°42' W 074°00'1 1.4
2018-Jun-13 20:00N 40°42' W 074°00'1 2.8
2018-Jun-13 19:30N 40°42' W 073°58'1 2.8
2018-Jun-13 19:01N 40°42' W 074°00'1 2.9
2018-Jun-13 18:30N 40°42' W 073°58'0 0.5
2018-Jun-13 18:00N 40°42' W 073°59'0 0.6
2018-Jun-13 17:30N 40°42' W 073°58'0 0.3
2018-Jun-13 17:00N 40°42' W 073°58'0 0.0
2018-Jun-13 16:30N 40°42' W 073°58'0 0.0
2018-Jun-13 16:00N 40°42' W 073°58'0 0.1
2018-Jun-13 15:30N 40°42' W 073°58'2 3.2
2018-Jun-13 15:01N 40°42' W 074°00'3 6.5
2018-Jun-13 14:31N 40°39' W 074°02'3 6.0
2018-Jun-13 14:01N 40°41' W 074°00'0 0.5
2018-Jun-13 13:30N 40°42' W 074°00'4 7.0
2018-Jun-13 13:01N 40°38' W 074°02'4 7.0
2018-Jun-13 12:31N 40°42' W 074°00'0 0.4
2018-Jun-13 12:01N 40°41' W 074°00'3 6.3
2018-Jun-13 11:30N 40°39' W 074°02'3 6.4
2018-Jun-13 11:00N 40°41' W 074°00'2 3.2
2018-Jun-13 10:28N 40°42' W 073°58'0 0.0
2018-Jun-13 02:40N 40°42' W 073°58'0 2.7
2018-Jun-13 02:30N 40°42' W 073°59'2 4.2
2018-Jun-13 02:01N 40°41' W 074°01'2 4.4
2018-Jun-13 01:31N 40°39' W 074°02'4 7.2
2018-Jun-13 01:00N 40°42' W 073°60'1 2.8
2018-Jun-13 00:30N 40°41' W 074°01'2 4.5
2018-Jun-13 00:01N 40°39' W 074°02'4 7.3
2018-Jun-12 23:30N 40°42' W 073°60'0 0.1
2018-Jun-12 23:00N 40°42' W 073°60'4 8.5
2018-Jun-12 22:30N 40°38' W 074°02'3 5.8
2018-Jun-12 22:00N 40°41' W 074°01'1 2.8
2018-Jun-12 21:31N 40°42' W 073°60'4 7.7
2018-Jun-12 21:01N 40°39' W 074°02'3 6.1
2018-Jun-12 20:30N 40°42' W 074°00'1 1.3
2018-Jun-12 20:01N 40°42' W 074°00'4 7.8
2018-Jun-12 19:30N 40°39' W 074°03'1 2.6
2018-Jun-12 19:01N 40°40' W 074°02'4 7.2
2018-Jun-12 18:30N 40°42' W 073°58'0 0.6
2018-Jun-12 18:01N 40°42' W 073°58'2 3.1
2018-Jun-12 17:30N 40°42' W 074°00'2 3.2
2018-Jun-12 17:01N 40°42' W 073°58'0 1.0
2018-Jun-12 16:31N 40°43' W 073°58'0 0.9
2018-Jun-12 16:01N 40°42' W 073°58'0 0.2
2018-Jun-12 15:30N 40°42' W 073°58'1 2.9
2018-Jun-12 15:01N 40°42' W 074°00'4 7.5
2018-Jun-12 14:30N 40°38' W 074°02'4 7.0
2018-Jun-12 14:01N 40°42' W 074°00'0 0.0
2018-Jun-12 13:30N 40°42' W 074°00'4 7.1
2018-Jun-12 13:01N 40°38' W 074°02'4 7.1
2018-Jun-12 12:30N 40°42' W 074°00'0 0.2
2018-Jun-12 12:00N 40°42' W 074°00'3 6.2
2018-Jun-12 11:31N 40°39' W 074°02'3 5.5
2018-Jun-12 11:00N 40°41' W 074°01'2 0.2
2018-Jun-12 02:50N 40°42' W 073°58'4 6.6
2018-Jun-12 02:17N 40°46' W 073°57'1 2.2
2018-Jun-12 01:56N 40°45' W 073°57'1 0.4
2018-Jun-12 00:14N 40°45' W 073°58'312.1
2018-Jun-12 00:00N 40°42' W 074°00'  
Track history (hours):
 
Tides and Currents Weather Stations Pressure Air Temp Water Temp Dewpoint Dewpoint Depression Visibility Wind Speed Wind Dir Waves Ship Positions

Happy Hauler

Owner: HNY Ferry Fleet LLC, New York, NY. More information available from US FCC via Universal Licensing System and Coast Guard Vessel Documentation Center.

Last reported at 2018-Jun-21 23:49 UTC. Time now 2018-Jun-22 09:02 UTC.
Position N 40°42' W 073°58'.

Length 26 m; draft 2 m.

Type: Passenger vessel. MMSI: 367784630.

Date/timePositionNaut miles runAvg speedWind from/ knotsBaromVisibWave heightAir tempDewpointWater temp
2018-Jun-21 23:49N 40°42' W 073°58'1 3.6
2018-Jun-21 23:31N 40°42' W 073°60'1 1.1
2018-Jun-21 23:01N 40°42' W 073°59'2 3.5
2018-Jun-21 22:30N 40°44' W 073°58'1 1.3
2018-Jun-21 22:00N 40°43' W 073°58'2 4.3
2018-Jun-21 21:30N 40°42' W 074°00'2 4.3
2018-Jun-21 21:00N 40°43' W 073°58'1 1.4
2018-Jun-21 20:08N 40°42' W 073°58'0 3.5
2018-Jun-21 20:00N 40°43' W 073°58'2 4.0
2018-Jun-21 19:30N 40°45' W 073°58'1 2.2
2018-Jun-21 18:49N 40°46' W 073°57'412.2
2018-Jun-21 18:30N 40°42' W 073°58'0 0.0
2018-Jun-21 17:14N 40°42' W 073°58'1 5.4
2018-Jun-21 17:01N 40°42' W 073°60'4 7.4
2018-Jun-21 16:31N 40°39' W 074°02'8 7.6
2018-Jun-21 15:25N 40°34' W 073°53'819.7
2018-Jun-21 15:00N 40°37' W 074°03'4 7.6
2018-Jun-21 14:30N 40°41' W 074°02'9 7.9
2018-Jun-21 13:22N 40°34' W 073°54'720.1
2018-Jun-21 13:00N 40°37' W 074°03'4 8.0
2018-Jun-21 12:31N 40°41' W 074°01'816.1
2018-Jun-21 12:00N 40°34' W 073°56'2 2.6
2018-Jun-21 11:22N 40°34' W 073°54'719.7
2018-Jun-21 11:01N 40°37' W 074°03'612.3
2018-Jun-21 10:31N 40°42' W 073°58'0 0.0
2018-Jun-21 02:54N 40°42' W 073°58'512.1
2018-Jun-21 02:30N 40°38' W 074°02'3 6.0
2018-Jun-21 02:01N 40°41' W 074°01'1 1.6
2018-Jun-21 01:31N 40°42' W 074°00'4 7.4
2018-Jun-21 01:00N 40°38' W 074°02'3 7.0
2018-Jun-21 00:30N 40°42' W 074°00'1 1.1
2018-Jun-21 00:01N 40°42' W 073°60'4 7.3
2018-Jun-20 23:30N 40°39' W 074°02'2 4.9
2018-Jun-20 23:00N 40°41' W 074°01'1 2.8
2018-Jun-20 22:31N 40°42' W 073°60'4 7.4
2018-Jun-20 22:01N 40°39' W 074°02'3 5.9
2018-Jun-20 21:30N 40°42' W 074°00'0 0.0
2018-Jun-20 21:00N 40°42' W 074°00'3 7.0
2018-Jun-20 20:30N 40°38' W 074°02'3 6.9
2018-Jun-20 20:00N 40°42' W 074°00'1 1.4
2018-Jun-20 19:31N 40°42' W 073°60'4 7.5
2018-Jun-20 19:01N 40°39' W 074°02'3 6.3
2018-Jun-20 18:31N 40°42' W 074°00'0 0.0
2018-Jun-20 18:00N 40°42' W 074°00'4 7.0
2018-Jun-20 17:30N 40°38' W 074°02'4 7.2
2018-Jun-20 17:01N 40°42' W 074°00'0 0.0
2018-Jun-20 16:31N 40°42' W 074°00'4 7.1
2018-Jun-20 16:00N 40°38' W 074°02'4 7.1
2018-Jun-20 15:30N 40°42' W 074°00'1 1.3
2018-Jun-20 15:01N 40°42' W 074°00'1 1.3
2018-Jun-20 14:30N 40°42' W 074°00'3 6.6
2018-Jun-20 13:59N 40°39' W 074°02'3 6.5
2018-Jun-20 13:31N 40°41' W 074°00'0 0.6
2018-Jun-20 13:00N 40°42' W 074°00'3 6.7
2018-Jun-20 12:30N 40°39' W 074°02'3 5.7
2018-Jun-20 12:01N 40°41' W 074°01'1 1.0
2018-Jun-20 11:30N 40°42' W 074°00'3 6.9
2018-Jun-20 11:00N 40°38' W 074°02'5 9.5
2018-Jun-20 10:30N 40°42' W 073°58'0 0.1
2018-Jun-20 05:54N 40°42' W 073°59'3 7.3
2018-Jun-20 05:30N 40°43' W 074°02'0 0.0
2018-Jun-20 05:00N 40°43' W 074°02'0 0.0
2018-Jun-20 04:30N 40°43' W 074°02'0 0.9
2018-Jun-20 04:00N 40°43' W 074°02'0 0.2
2018-Jun-20 03:30N 40°43' W 074°02'2 4.7
2018-Jun-20 03:00N 40°42' W 073°59'1 2.0
2018-Jun-20 02:31N 40°42' W 074°00'4 7.2
2018-Jun-20 01:58N 40°45' W 073°57'0 0.2
2018-Jun-20 01:29N 40°45' W 073°57'4 8.1
2018-Jun-20 01:00N 40°42' W 074°00'4 7.5
2018-Jun-20 00:30N 40°45' W 073°57'0 0.1
2018-Jun-20 00:00N 40°45' W 073°57'4 7.6
2018-Jun-19 23:30N 40°42' W 074°00'3 5.6
2018-Jun-19 23:00N 40°45' W 073°58'1 2.1
2018-Jun-19 22:22N 40°46' W 073°57'2 6.1
2018-Jun-19 22:00N 40°44' W 073°58'1 2.1
2018-Jun-19 21:30N 40°45' W 073°58'2 4.5
2018-Jun-19 21:00N 40°46' W 073°56'3 6.4
2018-Jun-19 20:30N 40°43' W 073°58'1 2.4
2018-Jun-19 20:00N 40°45' W 073°58'2 4.5
2018-Jun-19 19:30N 40°46' W 073°56'3 6.0
2018-Jun-19 19:01N 40°44' W 073°58'1 1.7
2018-Jun-19 18:28N 40°45' W 073°58'1 1.9
2018-Jun-19 17:53N 40°45' W 073°57'3 7.8
2018-Jun-19 17:30N 40°43' W 073°58'2 3.9
2018-Jun-19 17:00N 40°45' W 073°58'1 2.3
2018-Jun-19 16:25N 40°46' W 073°57'2 6.0
2018-Jun-19 16:01N 40°43' W 073°58'1 2.6
2018-Jun-19 15:28N 40°45' W 073°58'1 1.9
2018-Jun-19 14:53N 40°45' W 073°57'3 7.2
2018-Jun-19 14:30N 40°43' W 073°58'2 3.4
2018-Jun-19 14:00N 40°45' W 073°58'2 4.3
2018-Jun-19 13:28N 40°46' W 073°56'2 5.2
2018-Jun-19 13:00N 40°45' W 073°58'0 0.3
2018-Jun-19 12:30N 40°45' W 073°58'1 2.2
2018-Jun-19 11:52N 40°46' W 073°57'2 5.4
2018-Jun-19 11:30N 40°44' W 073°58'0 0.9
2018-Jun-19 11:00N 40°43' W 073°58'3 5.9
2018-Jun-19 10:29N 40°46' W 073°56'4 8.2
2018-Jun-19 10:00N 40°43' W 073°58'1 0.1
2018-Jun-19 02:40N 40°42' W 073°58'1 3.7
2018-Jun-19 02:30N 40°43' W 073°59'3 5.5
2018-Jun-19 02:00N 40°45' W 073°57'4 7.6
2018-Jun-19 01:30N 40°42' W 074°00'4 6.9
2018-Jun-19 00:54N 40°46' W 073°57'0 1.2
2018-Jun-19 00:30N 40°45' W 073°57'4 7.6
2018-Jun-19 00:00N 40°42' W 074°00'4 7.2
2018-Jun-18 23:27N 40°45' W 073°57'1 1.3
2018-Jun-18 23:00N 40°45' W 073°57'3 7.0
2018-Jun-18 22:31N 40°42' W 074°00'4 7.7
2018-Jun-18 21:59N 40°45' W 073°57'1 1.2
2018-Jun-18 21:30N 40°45' W 073°57'3 6.9
2018-Jun-18 21:00N 40°42' W 074°00'3 5.7
2018-Jun-18 20:30N 40°45' W 073°58'1 1.8
2018-Jun-18 19:52N 40°45' W 073°57'2 6.3
2018-Jun-18 19:31N 40°43' W 073°58'1 2.7
2018-Jun-18 19:00N 40°45' W 073°58'1 2.0
2018-Jun-18 18:24N 40°45' W 073°57'2 6.1
2018-Jun-18 18:00N 40°43' W 073°58'1 3.0
2018-Jun-18 17:31N 40°45' W 073°58'1 1.8
2018-Jun-18 16:54N 40°45' W 073°57'3 7.7
2018-Jun-18 16:31N 40°43' W 073°58'2 3.8
2018-Jun-18 15:58N 40°45' W 073°58'1 1.6
2018-Jun-18 15:19N 40°45' W 073°57'2 7.9
2018-Jun-18 15:01N 40°43' W 073°58'1 2.8
2018-Jun-18 14:31N 40°42' W 073°60'4 8.2
2018-Jun-18 14:00N 40°46' W 073°57'0 0.6
2018-Jun-18 13:30N 40°46' W 073°57'4 7.9
2018-Jun-18 13:00N 40°42' W 073°58'0 0.0
2018-Jun-18 00:00N 40°42' W 073°58'1 1.0
2018-Jun-17 23:30N 40°43' W 073°58'2 4.2
2018-Jun-17 22:59N 40°45' W 073°58'2 4.6
2018-Jun-17 22:30N 40°43' W 073°58'2 4.3
2018-Jun-17 22:00N 40°41' W 074°01'2 4.3
2018-Jun-17 21:31N 40°43' W 073°58'2 4.3
2018-Jun-17 21:00N 40°45' W 073°58'3 4.7
2018-Jun-17 20:25N 40°42' W 073°60'1 2.6
2018-Jun-17 20:01N 40°41' W 074°01'3 4.3
2018-Jun-17 19:22N 40°43' W 073°58'1 2.8
2018-Jun-17 18:55N 40°45' W 073°58'3 4.7
2018-Jun-17 18:19N 40°42' W 073°60'1 3.3
2018-Jun-17 18:01N 40°41' W 074°01'3 4.4
2018-Jun-17 17:16N 40°44' W 073°58'1 3.1
2018-Jun-17 17:00N 40°45' W 073°58'3 4.0
2018-Jun-17 16:20N 40°42' W 073°60'1 2.3
2018-Jun-17 16:01N 40°42' W 074°00'3 3.8
2018-Jun-17 15:07N 40°45' W 073°58'0 0.0
2018-Jun-17 14:51N 40°45' W 073°58'3 4.7
2018-Jun-17 14:19N 40°42' W 073°59'1 1.7
2018-Jun-17 13:54N 40°42' W 074°00'0 0.4
2018-Jun-17 13:30N 40°42' W 074°00'2 4.5
2018-Jun-17 12:58N 40°44' W 073°58'1 1.4
2018-Jun-17 12:16N 40°43' W 073°58'1 5.6
2018-Jun-17 12:01N 40°42' W 073°60'0 0.9
2018-Jun-17 11:30N 40°42' W 074°00'1 3.0
2018-Jun-17 11:00N 40°43' W 073°58'2 4.1
2018-Jun-17 10:30N 40°45' W 073°58'3 5.1
2018-Jun-17 10:00N 40°42' W 073°58'0 0.0
2018-Jun-17 02:20N 40°42' W 073°58'3 8.0
2018-Jun-17 02:00N 40°45' W 073°58'2 4.3
2018-Jun-17 01:31N 40°43' W 073°58'1 2.6
2018-Jun-17 01:00N 40°42' W 073°60'0 0.4
2018-Jun-17 00:30N 40°42' W 073°60'2 4.5
2018-Jun-17 00:01N 40°44' W 073°58'1 1.3
2018-Jun-16 23:30N 40°43' W 073°58'3 5.6
2018-Jun-16 23:00N 40°41' W 074°01'3 5.6
2018-Jun-16 22:30N 40°43' W 073°58'1 2.4
2018-Jun-16 22:01N 40°44' W 073°58'2 4.1
2018-Jun-16 21:30N 40°43' W 073°59'2 3.7
2018-Jun-16 21:00N 40°42' W 074°01'3 4.8
2018-Jun-16 20:29N 40°43' W 073°58'1 2.9
2018-Jun-16 20:00N 40°45' W 073°58'2 4.1
2018-Jun-16 19:30N 40°43' W 073°58'2 3.3
2018-Jun-16 19:00N 40°42' W 074°00'2 3.2
2018-Jun-16 18:30N 40°43' W 073°58'2 4.0
2018-Jun-16 18:00N 40°45' W 073°58'1 2.5
2018-Jun-16 17:30N 40°43' W 073°58'2 4.3
2018-Jun-16 17:01N 40°42' W 074°00'1 1.6
2018-Jun-16 16:31N 40°42' W 073°59'2 4.9
2018-Jun-16 16:01N 40°45' W 073°58'1 2.0
2018-Jun-16 15:31N 40°44' W 073°58'2 4.6
2018-Jun-16 15:00N 40°42' W 074°00'1 1.6
2018-Jun-16 14:31N 40°41' W 074°01'2 4.3
2018-Jun-16 14:00N 40°43' W 073°58'2 4.3
2018-Jun-16 13:30N 40°45' W 073°58'2 3.6
2018-Jun-16 13:01N 40°43' W 073°58'2 3.5
2018-Jun-16 12:30N 40°42' W 074°00'0 0.0
2018-Jun-16 12:00N 40°42' W 074°00'2 4.6
2018-Jun-16 11:30N 40°44' W 073°58'1 2.4
2018-Jun-16 11:00N 40°42' W 073°59'0 0.8
2018-Jun-16 10:30N 40°42' W 073°58'0 0.0
2018-Jun-16 03:04N 40°42' W 073°58'0 0.5
2018-Jun-16 03:00N 40°42' W 073°58'1 1.2
2018-Jun-16 02:30N 40°43' W 073°58'1 1.5
2018-Jun-16 02:00N 40°43' W 073°58'2 4.3
2018-Jun-16 01:30N 40°42' W 074°00'0 0.4
2018-Jun-16 01:01N 40°42' W 074°00'2 4.8
2018-Jun-16 00:31N 40°44' W 073°58'1 1.3
2018-Jun-16 00:00N 40°43' W 073°58'2 4.3
2018-Jun-15 23:30N 40°42' W 074°00'2 4.3
2018-Jun-15 23:01N 40°43' W 073°58'1 2.5
2018-Jun-15 22:31N 40°45' W 073°58'3 5.6
2018-Jun-15 22:00N 40°42' W 073°60'0 0.3
2018-Jun-15 21:30N 40°42' W 073°60'3 5.0
2018-Jun-15 21:00N 40°45' W 073°58'2 3.9
2018-Jun-15 20:30N 40°43' W 073°58'2 3.4
2018-Jun-15 20:00N 40°42' W 074°00'2 4.3
2018-Jun-15 19:30N 40°43' W 073°58'1 2.5
2018-Jun-15 19:00N 40°45' W 073°58'3 5.6
2018-Jun-15 18:30N 40°42' W 073°60'0 0.9
2018-Jun-15 18:00N 40°42' W 074°00'2 4.9
2018-Jun-15 17:30N 40°44' W 073°58'0 0.7
2018-Jun-15 17:00N 40°44' W 073°58'2 3.9
2018-Jun-15 16:31N 40°42' W 073°59'1 1.3
2018-Jun-15 16:01N 40°42' W 073°58'0 0.0
2018-Jun-15 15:30N 40°42' W 073°58'0 0.0
2018-Jun-15 15:01N 40°42' W 073°58'0 0.0
2018-Jun-15 14:30N 40°42' W 073°58'2 4.6
2018-Jun-15 14:00N 40°44' W 073°58'1 1.3
2018-Jun-15 13:30N 40°45' W 073°57'3 5.7
2018-Jun-15 13:00N 40°42' W 073°59'5 7.4
2018-Jun-15 12:23N 40°46' W 073°56'2 4.5
2018-Jun-15 12:00N 40°45' W 073°57'2 3.8
2018-Jun-15 11:30N 40°43' W 073°58'4 6.6
2018-Jun-15 10:58N 40°46' W 073°56'5 9.9
2018-Jun-15 10:30N 40°42' W 073°58'0 0.0
2018-Jun-15 10:00N 40°42' W 073°58'0 0.0
2018-Jun-15 01:51N 40°42' W 073°58'1 3.3
2018-Jun-15 01:30N 40°42' W 073°60'2 4.4
2018-Jun-15 01:00N 40°44' W 073°58'0 0.5
2018-Jun-15 00:30N 40°44' W 073°58'2 4.8
2018-Jun-15 00:00N 40°42' W 074°00'2 3.1
2018-Jun-14 23:30N 40°43' W 073°58'2 4.0
2018-Jun-14 23:00N 40°45' W 073°58'2 3.5
2018-Jun-14 22:30N 40°43' W 073°58'1 3.0
2018-Jun-14 22:00N 40°42' W 073°60'2 4.6
2018-Jun-14 21:30N 40°44' W 073°58'1 1.3
2018-Jun-14 21:00N 40°43' W 073°58'2 4.3
2018-Jun-14 20:30N 40°42' W 074°00'2 4.3
2018-Jun-14 20:00N 40°43' W 073°58'1 2.5
2018-Jun-14 19:30N 40°45' W 073°58'3 5.6
2018-Jun-14 19:01N 40°42' W 073°60'0 0.9
2018-Jun-14 18:31N 40°42' W 074°00'2 4.2
2018-Jun-14 18:00N 40°43' W 073°58'1 2.6
2018-Jun-14 17:30N 40°45' W 073°58'3 5.5
2018-Jun-14 17:00N 40°42' W 073°60'0 0.3
2018-Jun-14 16:31N 40°42' W 073°60'2 3.4
2018-Jun-14 16:00N 40°43' W 073°58'1 2.5
2018-Jun-14 15:30N 40°45' W 073°58'3 5.1
2018-Jun-14 15:00N 40°42' W 073°60'4 8.3
2018-Jun-14 14:30N 40°39' W 074°02'4 8.7
2018-Jun-14 14:00N 40°42' W 073°59'0 1.0
2018-Jun-14 13:30N 40°43' W 073°59'1 1.0
2018-Jun-14 13:00N 40°42' W 073°58'1 1.3
2018-Jun-14 12:30N 40°43' W 073°59'2 4.3
2018-Jun-14 12:00N 40°45' W 073°58'1 2.8
2018-Jun-14 11:30N 40°43' W 073°58'1 2.6
2018-Jun-14 11:01N 40°42' W 073°58'0 0.0
2018-Jun-14 10:30N 40°42' W 073°58'0 0.0
2018-Jun-14 01:48N 40°42' W 073°58'0 0.0
2018-Jun-14 01:30N 40°42' W 073°58'2 4.5
2018-Jun-14 01:00N 40°41' W 074°01'2 4.3
2018-Jun-14 00:30N 40°42' W 073°58'1 2.4
2018-Jun-14 00:01N 40°43' W 073°58'1 2.5
2018-Jun-13 23:30N 40°42' W 073°58'1 2.2
2018-Jun-13 23:00N 40°42' W 073°60'4 7.9
2018-Jun-13 22:30N 40°39' W 074°02'3 5.6
2018-Jun-13 22:00N 40°41' W 074°01'1 2.3
2018-Jun-13 21:31N 40°42' W 073°60'4 7.4
2018-Jun-13 21:01N 40°39' W 074°02'3 6.0
2018-Jun-13 20:31N 40°42' W 074°00'1 1.4
2018-Jun-13 20:00N 40°42' W 074°00'1 2.8
2018-Jun-13 19:30N 40°42' W 073°58'1 2.8
2018-Jun-13 19:01N 40°42' W 074°00'1 2.9
2018-Jun-13 18:30N 40°42' W 073°58'0 0.5
2018-Jun-13 18:00N 40°42' W 073°59'0 0.6
2018-Jun-13 17:30N 40°42' W 073°58'0 0.3
2018-Jun-13 17:00N 40°42' W 073°58'0 0.0
2018-Jun-13 16:30N 40°42' W 073°58'0 0.0
2018-Jun-13 16:00N 40°42' W 073°58'0 0.1
2018-Jun-13 15:30N 40°42' W 073°58'2 3.2
2018-Jun-13 15:01N 40°42' W 074°00'3 6.5
2018-Jun-13 14:31N 40°39' W 074°02'3 6.0
2018-Jun-13 14:01N 40°41' W 074°00'0 0.5
2018-Jun-13 13:30N 40°42' W 074°00'4 7.0
2018-Jun-13 13:01N 40°38' W 074°02'4 7.0
2018-Jun-13 12:31N 40°42' W 074°00'0 0.4
2018-Jun-13 12:01N 40°41' W 074°00'3 6.3
2018-Jun-13 11:30N 40°39' W 074°02'3 6.4
2018-Jun-13 11:00N 40°41' W 074°00'2 3.2
2018-Jun-13 10:28N 40°42' W 073°58'0 0.0
2018-Jun-13 02:40N 40°42' W 073°58'0 2.7
2018-Jun-13 02:30N 40°42' W 073°59'2 4.2
2018-Jun-13 02:01N 40°41' W 074°01'2 4.4
2018-Jun-13 01:31N 40°39' W 074°02'4 7.2
2018-Jun-13 01:00N 40°42' W 073°60'1 2.8
2018-Jun-13 00:30N 40°41' W 074°01'2 4.5
2018-Jun-13 00:01N 40°39' W 074°02'4 7.3
2018-Jun-12 23:30N 40°42' W 073°60'0 0.1
2018-Jun-12 23:00N 40°42' W 073°60'4 8.5
2018-Jun-12 22:30N 40°38' W 074°02'3 5.8
2018-Jun-12 22:00N 40°41' W 074°01'1 2.8
2018-Jun-12 21:31N 40°42' W 073°60'4 7.7
2018-Jun-12 21:01N 40°39' W 074°02'3 6.1
2018-Jun-12 20:30N 40°42' W 074°00'1 1.3
2018-Jun-12 20:01N 40°42' W 074°00'4 7.8
2018-Jun-12 19:30N 40°39' W 074°03'1 2.6
2018-Jun-12 19:01N 40°40' W 074°02'4 7.2
2018-Jun-12 18:30N 40°42' W 073°58'0 0.6
2018-Jun-12 18:01N 40°42' W 073°58'2 3.1
2018-Jun-12 17:30N 40°42' W 074°00'2 3.2
2018-Jun-12 17:01N 40°42' W 073°58'0 1.0
2018-Jun-12 16:31N 40°43' W 073°58'0 0.9
2018-Jun-12 16:01N 40°42' W 073°58'0 0.2
2018-Jun-12 15:30N 40°42' W 073°58'1 2.9
2018-Jun-12 15:01N 40°42' W 074°00'4 7.5
2018-Jun-12 14:30N 40°38' W 074°02'4 7.0
2018-Jun-12 14:01N 40°42' W 074°00'0 0.0
2018-Jun-12 13:30N 40°42' W 074°00'4 7.1
2018-Jun-12 13:01N 40°38' W 074°02'4 7.1
2018-Jun-12 12:30N 40°42' W 074°00'0 0.2
2018-Jun-12 12:00N 40°42' W 074°00'3 6.2
2018-Jun-12 11:31N 40°39' W 074°02'3 5.5
2018-Jun-12 11:00N 40°41' W 074°01'2 0.2
2018-Jun-12 02:50N 40°42' W 073°58'4 6.6
2018-Jun-12 02:17N 40°46' W 073°57'1 2.2
2018-Jun-12 01:56N 40°45' W 073°57'1 0.4
2018-Jun-12 00:14N 40°45' W 073°58'312.1
2018-Jun-12 00:00N 40°42' W 074°00'  

Dump ship's entire track history